createdAt,value
2023-05-05T00:01:51.142Z,15.58
2023-05-05T00:04:17.999Z,15.57
2023-05-05T00:06:44.868Z,15.53
2023-05-05T00:09:30.287Z,15.53
2023-05-05T00:12:15.625Z,15.53
2023-05-05T00:14:42.738Z,15.52
2023-05-05T00:17:10.711Z,15.49
2023-05-05T00:19:37.463Z,15.49
2023-05-05T00:22:04.227Z,15.47
2023-05-05T00:24:31.055Z,15.43
2023-05-05T00:27:16.545Z,15.41
2023-05-05T00:29:43.182Z,15.38
2023-05-05T00:32:09.908Z,15.34
2023-05-05T00:34:38.475Z,15.30
2023-05-05T00:37:05.852Z,15.25
2023-05-05T00:39:33.346Z,15.21
2023-05-05T00:42:01.013Z,15.17
2023-05-05T00:44:41.680Z,15.14
2023-05-05T00:47:09.753Z,15.13
2023-05-05T00:49:37.305Z,15.11
2023-05-05T00:52:05.380Z,15.09
2023-05-05T00:54:33.534Z,15.07
2023-05-05T00:57:02.215Z,15.03
2023-05-05T00:59:31.152Z,15.00
2023-05-05T01:01:58.051Z,14.99
2023-05-05T01:04:26.994Z,14.99
2023-05-05T01:07:13.910Z,14.97
2023-05-05T01:10:15.601Z,14.94
2023-05-05T01:12:55.112Z,14.93
2023-05-05T01:15:40.622Z,14.91
2023-05-05T01:18:13.992Z,14.90
2023-05-05T01:20:46.540Z,14.90
2023-05-05T01:23:25.647Z,14.89
2023-05-05T01:26:07.529Z,14.85
2023-05-05T01:29:12.153Z,14.84
2023-05-05T01:31:54.992Z,14.80
2023-05-05T01:34:28.274Z,14.72
2023-05-05T01:37:12.123Z,14.69
2023-05-05T01:39:41.321Z,14.65
2023-05-05T01:42:14.048Z,14.60
2023-05-05T01:44:46.695Z,14.55
2023-05-05T01:47:16.207Z,14.49
2023-05-05T01:49:47.801Z,14.46
2023-05-05T01:52:16.064Z,14.42
2023-05-05T01:54:46.676Z,14.38
2023-05-05T01:57:14.763Z,14.35
2023-05-05T01:59:41.411Z,14.32
2023-05-05T02:02:12.352Z,14.27
2023-05-05T02:04:43.784Z,14.24
2023-05-05T02:07:12.766Z,14.23
2023-05-05T02:09:41.032Z,14.23
2023-05-05T02:12:08.585Z,14.23
2023-05-05T02:14:37.136Z,14.23
2023-05-05T02:17:04.251Z,14.25
2023-05-05T02:19:39.790Z,14.26
2023-05-05T02:22:06.817Z,14.27
2023-05-05T02:24:34.171Z,14.27
2023-05-05T02:27:03.866Z,14.30
2023-05-05T02:29:47.035Z,14.28
2023-05-05T02:32:37.621Z,14.28
2023-05-05T02:35:36.732Z,14.28
2023-05-05T02:38:05.710Z,14.24
2023-05-05T02:40:40.824Z,14.23
2023-05-05T02:43:11.542Z,14.19
2023-05-05T02:45:38.434Z,14.20
2023-05-05T02:48:06.782Z,14.19
2023-05-05T02:50:33.722Z,14.18
2023-05-05T02:53:01.715Z,14.18
2023-05-05T02:55:37.175Z,14.19
2023-05-05T02:58:16.480Z,14.18
2023-05-05T03:01:04.999Z,14.18
2023-05-05T03:03:43.339Z,14.16
2023-05-05T03:06:24.986Z,14.16
2023-05-05T03:09:03.556Z,14.14
2023-05-05T03:11:41.309Z,14.15
2023-05-05T03:14:11.824Z,14.14
2023-05-05T03:16:40.993Z,14.13
2023-05-05T03:19:11.495Z,14.14
2023-05-05T03:21:39.213Z,14.15
2023-05-05T03:24:19.507Z,14.18
2023-05-05T03:26:48.011Z,14.18
2023-05-05T03:29:33.424Z,14.19
2023-05-05T03:32:01.499Z,14.17
2023-05-05T03:34:28.142Z,14.19
2023-05-05T03:36:54.794Z,14.20
2023-05-05T03:39:21.519Z,14.23
2023-05-05T03:41:48.186Z,14.23
2023-05-05T03:44:17.749Z,14.23
2023-05-05T03:46:44.500Z,14.21
2023-05-05T03:49:11.247Z,14.21
2023-05-05T03:51:39.231Z,14.18
2023-05-05T03:54:05.913Z,14.17
2023-05-05T03:56:33.434Z,14.18
2023-05-05T03:59:00.068Z,14.13
2023-05-05T04:01:27.020Z,14.07
2023-05-05T04:03:53.742Z,14.04
2023-05-05T04:06:20.455Z,13.97
2023-05-05T04:08:47.120Z,13.95
2023-05-05T04:11:14.622Z,13.93
2023-05-05T04:13:41.795Z,13.90
2023-05-05T04:16:09.393Z,13.87
2023-05-05T04:18:36.338Z,13.85
2023-05-05T04:21:05.684Z,13.85
2023-05-05T04:23:32.329Z,13.83
2023-05-05T04:25:59.037Z,13.85
2023-05-05T04:28:25.709Z,13.87
2023-05-05T04:30:52.426Z,13.89
2023-05-05T04:33:19.178Z,13.92
2023-05-05T04:35:48.700Z,13.96
2023-05-05T04:38:15.344Z,14.04
2023-05-05T04:40:42.975Z,14.08
2023-05-05T04:43:09.702Z,14.17
2023-05-05T04:45:36.420Z,14.27
2023-05-05T04:48:07.910Z,14.34
2023-05-05T04:50:34.649Z,14.40
2023-05-05T04:53:01.263Z,14.46
2023-05-05T04:55:29.438Z,14.48
2023-05-05T04:57:57.006Z,14.49
2023-05-05T05:00:24.086Z,14.48
2023-05-05T05:02:50.743Z,14.47
2023-05-05T05:05:18.449Z,14.45
2023-05-05T05:07:47.197Z,14.43
2023-05-05T05:10:15.579Z,14.45
2023-05-05T05:12:42.409Z,14.46
2023-05-05T05:15:10.130Z,14.49
2023-05-05T05:17:36.823Z,14.51
2023-05-05T05:20:05.103Z,14.56
2023-05-05T05:22:32.412Z,14.59
2023-05-05T05:24:59.322Z,14.68
2023-05-05T05:27:44.774Z,14.98
2023-05-05T05:30:13.597Z,15.19
2023-05-05T05:32:40.273Z,15.58
2023-05-05T05:35:07.276Z,16.03
2023-05-05T05:37:37.268Z,16.41
2023-05-05T05:40:05.401Z,16.76
2023-05-05T05:42:34.236Z,17.33
2023-05-05T05:45:01.567Z,18.04
2023-05-05T05:47:28.414Z,18.72
2023-05-05T05:49:55.028Z,19.21
2023-05-05T05:52:21.631Z,19.67
2023-05-05T05:54:49.545Z,20.11
2023-05-05T05:57:16.202Z,20.51
2023-05-05T05:59:42.902Z,20.59
2023-05-05T06:02:09.771Z,20.82
2023-05-05T06:04:36.681Z,21.10
2023-05-05T06:07:03.426Z,21.22
2023-05-05T06:09:32.711Z,21.09
2023-05-05T06:11:59.310Z,21.21
2023-05-05T06:14:27.736Z,21.27
2023-05-05T06:16:55.286Z,21.36
2023-05-05T06:19:21.905Z,21.43
2023-05-05T06:21:48.533Z,21.39
2023-05-05T06:24:15.837Z,21.57
2023-05-05T06:26:42.539Z,21.84
2023-05-05T06:29:11.032Z,22.11
2023-05-05T06:31:38.871Z,22.50
2023-05-05T06:34:05.576Z,23.01
2023-05-05T06:36:32.524Z,23.15
2023-05-05T06:39:00.194Z,23.17
2023-05-05T06:41:27.975Z,23.57
2023-05-05T06:43:55.221Z,23.88
2023-05-05T06:46:21.851Z,24.11
2023-05-05T06:48:48.977Z,24.23
2023-05-05T06:51:16.202Z,24.32
2023-05-05T06:53:42.906Z,24.26
2023-05-05T06:56:09.623Z,24.38
2023-05-05T06:58:36.587Z,24.66
2023-05-05T07:01:04.104Z,24.73
2023-05-05T07:03:31.170Z,24.80
2023-05-05T07:05:57.867Z,24.79
2023-05-05T07:08:30.423Z,24.85
2023-05-05T07:10:57.039Z,24.89
2023-05-05T07:13:23.704Z,25.05
2023-05-05T07:15:50.494Z,25.33
2023-05-05T07:18:17.268Z,25.40
2023-05-05T07:20:46.790Z,25.46
2023-05-05T07:23:13.373Z,25.49
2023-05-05T07:25:40.077Z,25.46
2023-05-05T07:28:06.845Z,25.46
2023-05-05T07:30:33.568Z,25.42
2023-05-05T07:33:00.343Z,25.41
2023-05-05T07:35:46.140Z,25.29
2023-05-05T07:38:12.847Z,25.24
2023-05-05T07:40:39.424Z,25.43
2023-05-05T07:43:06.151Z,25.53
2023-05-05T07:45:33.178Z,25.47
2023-05-05T07:48:02.244Z,25.49
2023-05-05T07:50:28.902Z,25.44
2023-05-05T07:53:02.546Z,25.14
2023-05-05T07:55:40.134Z,25.04
2023-05-05T07:58:12.790Z,25.01
2023-05-05T08:00:39.852Z,25.04
2023-05-05T08:03:11.378Z,24.73
2023-05-05T08:05:38.715Z,24.43
2023-05-05T08:08:07.055Z,24.31
2023-05-05T08:10:33.716Z,24.22
2023-05-05T08:13:00.419Z,24.15
2023-05-05T08:15:27.148Z,24.10
2023-05-05T08:17:57.257Z,23.84
2023-05-05T08:20:28.677Z,23.51
2023-05-05T08:22:55.253Z,23.48
2023-05-05T08:25:23.430Z,23.63
2023-05-05T08:27:52.881Z,23.67
2023-05-05T08:30:21.489Z,23.86
2023-05-05T08:32:48.190Z,23.98
2023-05-05T08:35:18.311Z,24.03
2023-05-05T08:37:45.276Z,24.11
2023-05-05T08:40:37.638Z,24.12
2023-05-05T08:43:06.009Z,24.14
2023-05-05T08:45:33.298Z,24.25
2023-05-05T08:48:05.322Z,24.36
2023-05-05T08:50:32.642Z,24.43
2023-05-05T08:53:02.303Z,24.40
2023-05-05T08:55:34.621Z,24.43
2023-05-05T08:58:04.202Z,24.33
2023-05-05T09:00:32.512Z,24.27
2023-05-05T09:03:02.343Z,24.28
2023-05-05T09:05:29.819Z,24.36
2023-05-05T09:07:57.051Z,24.58
2023-05-05T09:10:26.164Z,24.83
2023-05-05T09:12:52.888Z,24.94
2023-05-05T09:15:19.587Z,24.92
2023-05-05T09:17:47.187Z,25.00
2023-05-05T09:20:14.844Z,25.09
2023-05-05T09:22:44.888Z,24.93
2023-05-05T09:25:14.363Z,24.98
2023-05-05T09:27:43.229Z,25.09
2023-05-05T09:30:15.583Z,25.26
2023-05-05T09:32:49.172Z,25.40
2023-05-05T09:35:18.530Z,25.49
2023-05-05T09:37:45.297Z,25.30
2023-05-05T09:40:18.097Z,24.90
2023-05-05T09:42:45.533Z,24.68
2023-05-05T09:45:17.935Z,24.43
2023-05-05T09:47:48.164Z,24.54
2023-05-05T09:50:18.852Z,24.72
2023-05-05T09:53:01.298Z,24.95
2023-05-05T09:55:28.174Z,25.19
2023-05-05T09:57:54.890Z,25.40
2023-05-05T10:00:22.205Z,25.55
2023-05-05T10:02:48.996Z,25.63
2023-05-05T10:05:19.135Z,25.74
2023-05-05T10:07:47.476Z,25.69
2023-05-05T10:10:18.639Z,25.53
2023-05-05T10:12:50.005Z,25.42
2023-05-05T10:15:16.922Z,25.64
2023-05-05T10:20:20.646Z,25.63
2023-05-05T10:22:56.852Z,25.37
2023-05-05T10:25:35.221Z,25.29
2023-05-05T10:28:06.957Z,25.25
2023-05-05T10:30:39.286Z,25.37
2023-05-05T10:35:53.023Z,25.70
2023-05-05T10:38:20.871Z,25.91
2023-05-05T10:40:48.980Z,25.98
2023-05-05T10:43:15.794Z,25.85
2023-05-05T10:45:43.525Z,25.66
2023-05-05T10:48:27.824Z,25.58
2023-05-05T10:51:06.305Z,25.34
2023-05-05T10:53:41.660Z,25.41
2023-05-05T10:56:10.959Z,25.44
2023-05-05T10:58:55.550Z,25.40
2023-05-05T11:01:33.680Z,25.29
2023-05-05T11:04:23.772Z,25.20
2023-05-05T11:07:09.818Z,25.14
2023-05-05T11:10:01.682Z,24.80
2023-05-05T11:12:32.336Z,24.61
2023-05-05T11:15:25.088Z,24.36
2023-05-05T11:17:53.039Z,24.34
2023-05-05T11:20:40.956Z,24.40
2023-05-05T11:23:07.713Z,24.48
2023-05-05T11:25:42.126Z,24.38
2023-05-05T11:28:12.879Z,24.31
2023-05-05T11:30:58.672Z,24.35
2023-05-05T11:33:37.222Z,24.33
2023-05-05T11:36:09.078Z,24.14
2023-05-05T11:38:51.079Z,24.04
2023-05-05T11:41:33.753Z,23.95
2023-05-05T11:44:17.261Z,22.90
2023-05-05T11:46:53.138Z,22.31
2023-05-05T11:49:34.868Z,21.93
2023-05-05T11:52:03.668Z,21.85
2023-05-05T11:54:31.254Z,21.76
2023-05-05T11:57:02.054Z,21.78
2023-05-05T11:59:28.725Z,21.95
2023-05-05T12:01:55.722Z,22.16
2023-05-05T12:04:22.495Z,22.37
2023-05-05T12:06:49.280Z,22.55
2023-05-05T12:09:20.652Z,22.76
2023-05-05T12:11:55.448Z,22.97
2023-05-05T12:14:23.760Z,23.08
2023-05-05T12:16:57.113Z,23.18
2023-05-05T12:19:32.985Z,23.21
2023-05-05T12:22:03.975Z,23.30
2023-05-05T12:24:32.513Z,23.39
2023-05-05T12:27:13.272Z,23.26
2023-05-05T12:29:41.548Z,23.40
2023-05-05T12:32:18.707Z,23.67
2023-05-05T12:34:45.778Z,23.80
2023-05-05T12:37:12.700Z,24.01
2023-05-05T12:39:39.383Z,24.08
2023-05-05T12:42:07.186Z,24.22
2023-05-05T12:44:37.849Z,24.12
2023-05-05T12:47:05.415Z,23.95
2023-05-05T12:49:54.177Z,23.80
2023-05-05T12:52:21.149Z,23.65
2023-05-05T12:54:58.674Z,23.57
2023-05-05T12:57:29.961Z,23.54
2023-05-05T12:59:58.369Z,23.43
2023-05-05T13:02:35.177Z,23.33
2023-05-05T13:05:01.852Z,23.05
2023-05-05T13:07:31.425Z,22.13
2023-05-05T13:10:10.990Z,21.46
2023-05-05T13:12:37.765Z,20.61
2023-05-05T13:15:04.683Z,20.04
2023-05-05T13:17:34.610Z,19.59
2023-05-05T13:20:01.419Z,19.19
2023-05-05T13:22:28.998Z,19.02
2023-05-05T13:24:55.560Z,18.69
2023-05-05T13:27:23.774Z,18.47
2023-05-05T13:29:50.468Z,18.11
2023-05-05T13:32:17.088Z,17.53
2023-05-05T13:34:44.253Z,17.25
2023-05-05T13:37:10.934Z,17.16
2023-05-05T13:39:40.892Z,16.93
2023-05-05T13:42:07.494Z,16.95
2023-05-05T13:44:35.345Z,16.98
2023-05-05T13:47:03.078Z,17.02
2023-05-05T13:49:29.859Z,16.93
2023-05-05T13:51:56.583Z,16.86
2023-05-05T13:54:23.262Z,16.97
2023-05-05T13:56:49.909Z,16.98
2023-05-05T13:59:19.200Z,16.92
2023-05-05T14:01:46.021Z,17.00
2023-05-05T14:04:12.715Z,17.03
2023-05-05T14:06:39.484Z,17.10
2023-05-05T14:09:07.725Z,17.10
2023-05-05T14:11:34.370Z,17.03
2023-05-05T14:14:01.665Z,17.04
2023-05-05T14:16:29.443Z,17.06
2023-05-05T14:18:56.153Z,17.15
2023-05-05T14:21:22.692Z,17.27
2023-05-05T14:23:49.353Z,17.36
2023-05-05T14:26:16.118Z,17.52
2023-05-05T14:28:43.630Z,17.57
2023-05-05T14:31:11.271Z,17.57
2023-05-05T14:33:37.981Z,17.59
2023-05-05T14:36:04.914Z,17.58
2023-05-05T14:38:31.497Z,17.57
2023-05-05T14:40:58.989Z,17.55
2023-05-05T14:43:25.723Z,17.48
2023-05-05T14:45:52.979Z,17.45
2023-05-05T14:48:26.955Z,17.30
2023-05-05T14:50:53.521Z,17.21
2023-05-05T14:53:20.398Z,17.24
2023-05-05T14:55:47.972Z,17.09
2023-05-05T14:58:18.706Z,17.06
2023-05-05T15:00:45.429Z,17.03
2023-05-05T15:03:17.904Z,17.04
2023-05-05T15:05:44.543Z,17.11
2023-05-05T15:08:11.567Z,17.07
2023-05-05T15:10:38.173Z,17.09
2023-05-05T15:13:06.674Z,17.03
2023-05-05T15:15:33.294Z,16.98
2023-05-05T15:17:59.880Z,16.87
2023-05-05T15:20:26.734Z,16.92
2023-05-05T15:22:54.889Z,16.89
2023-05-05T15:25:22.477Z,16.94
2023-05-05T15:27:49.412Z,17.16
2023-05-05T15:30:16.124Z,17.41
2023-05-05T15:32:42.794Z,17.61
2023-05-05T15:35:09.748Z,17.67
2023-05-05T15:37:37.910Z,17.73
2023-05-05T15:40:07.960Z,17.53
2023-05-05T15:42:34.860Z,17.49
2023-05-05T15:45:01.880Z,17.64
2023-05-05T15:47:28.753Z,17.66
2023-05-05T15:49:57.351Z,17.69
2023-05-05T15:52:24.028Z,17.68
2023-05-05T15:54:51.610Z,17.73
2023-05-05T15:57:18.284Z,17.79
2023-05-05T15:59:46.525Z,17.76
2023-05-05T16:02:13.311Z,17.81
2023-05-05T16:04:39.903Z,17.91
2023-05-05T16:07:06.565Z,18.06
2023-05-05T16:09:33.235Z,18.13
2023-05-05T16:11:59.953Z,18.14
2023-05-05T16:14:27.956Z,18.24
2023-05-05T16:16:55.555Z,18.35
2023-05-05T16:19:41.060Z,18.33
2023-05-05T16:22:07.790Z,18.32
2023-05-05T16:24:34.863Z,18.31
2023-05-05T16:27:01.545Z,18.34
2023-05-05T16:29:28.263Z,18.37
2023-05-05T16:31:55.051Z,18.35
2023-05-05T16:34:21.924Z,18.34
2023-05-05T16:36:48.539Z,18.33
2023-05-05T16:39:21.316Z,18.36
2023-05-05T16:41:48.100Z,18.39
2023-05-05T16:44:14.836Z,18.33
2023-05-05T16:46:42.766Z,18.32
2023-05-05T16:49:09.437Z,18.35
2023-05-05T16:51:37.417Z,18.35
2023-05-05T16:54:04.064Z,18.41
2023-05-05T16:56:49.503Z,18.46
2023-05-05T16:59:18.344Z,18.49
2023-05-05T17:01:45.188Z,18.53
2023-05-05T17:04:11.951Z,18.58
2023-05-05T17:06:42.348Z,18.62
2023-05-05T17:09:09.713Z,18.61
2023-05-05T17:11:36.453Z,18.68
2023-05-05T17:14:06.012Z,18.75
2023-05-05T17:16:35.610Z,18.67
2023-05-05T17:19:02.326Z,18.56
2023-05-05T17:21:29.245Z,18.50
2023-05-05T17:23:58.024Z,18.39
2023-05-05T17:26:24.790Z,18.27
2023-05-05T17:28:52.142Z,18.17
2023-05-05T17:31:18.740Z,18.10
2023-05-05T17:33:46.251Z,18.07
2023-05-05T17:36:12.962Z,17.99
2023-05-05T17:38:41.398Z,17.95
2023-05-05T17:41:08.047Z,17.95
2023-05-05T17:43:35.228Z,17.94
2023-05-05T17:46:01.869Z,17.94
2023-05-05T17:48:28.609Z,17.93
2023-05-05T17:50:55.974Z,17.90
2023-05-05T17:53:25.321Z,17.89
2023-05-05T17:55:51.828Z,17.86
2023-05-05T17:58:18.778Z,17.86
2023-05-05T18:00:45.646Z,17.77
2023-05-05T18:03:12.967Z,17.71
2023-05-05T18:05:39.778Z,17.67
2023-05-05T18:08:06.942Z,17.64
2023-05-05T18:10:33.927Z,17.65
2023-05-05T18:13:00.604Z,17.59
2023-05-05T18:15:27.391Z,17.51
2023-05-05T18:17:56.249Z,17.47
2023-05-05T18:20:22.883Z,17.47
2023-05-05T18:22:52.336Z,17.45
2023-05-05T18:25:19.221Z,17.40
2023-05-05T18:27:46.336Z,17.37
2023-05-05T18:30:13.258Z,17.33
2023-05-05T18:32:40.363Z,17.31
2023-05-05T18:35:07.787Z,17.26
2023-05-05T18:37:35.336Z,17.23
2023-05-05T18:40:01.975Z,17.13
2023-05-05T18:42:30.465Z,17.08
2023-05-05T18:44:57.232Z,17.09
2023-05-05T18:47:23.932Z,17.08
2023-05-05T18:49:50.478Z,17.07
2023-05-05T18:52:18.816Z,17.08
2023-05-05T18:54:45.592Z,17.08
2023-05-05T18:57:12.300Z,17.06
2023-05-05T18:59:38.965Z,17.07
2023-05-05T19:02:07.525Z,17.07
2023-05-05T19:04:37.414Z,17.06
2023-05-05T19:07:04.884Z,17.04
2023-05-05T19:09:31.714Z,16.98
2023-05-05T19:12:02.923Z,16.93
2023-05-05T19:14:29.792Z,16.90
2023-05-05T19:16:59.028Z,16.85
2023-05-05T19:19:26.020Z,16.82
2023-05-05T19:21:52.648Z,16.75
2023-05-05T19:24:19.282Z,16.69
2023-05-05T19:26:46.322Z,16.68
2023-05-05T19:29:13.182Z,16.68
2023-05-05T19:31:42.678Z,16.66
2023-05-05T19:34:09.266Z,16.61
2023-05-05T19:36:38.144Z,16.55
2023-05-05T19:39:05.133Z,16.50
2023-05-05T19:41:35.179Z,16.44
2023-05-05T19:44:01.909Z,16.41
2023-05-05T19:46:28.712Z,16.36
2023-05-05T19:48:57.016Z,16.26
2023-05-05T19:51:23.724Z,16.20
2023-05-05T19:53:51.955Z,16.13
2023-05-05T19:56:18.733Z,16.07
2023-05-05T19:59:01.886Z,16.00
2023-05-05T20:01:30.151Z,15.93
2023-05-05T20:03:57.357Z,15.85
2023-05-05T20:06:24.385Z,15.79
2023-05-05T20:08:52.285Z,15.74
2023-05-05T20:11:20.182Z,15.67
2023-05-05T20:13:50.293Z,15.64
2023-05-05T20:16:17.175Z,15.62
2023-05-05T20:18:44.227Z,15.55
2023-05-05T20:21:10.993Z,15.52
2023-05-05T20:23:56.362Z,15.48
2023-05-05T20:26:24.612Z,15.41
2023-05-05T20:28:51.403Z,15.37
2023-05-05T20:31:19.854Z,15.34
2023-05-05T20:33:46.565Z,15.33
2023-05-05T20:36:13.354Z,15.32
2023-05-05T20:38:39.979Z,15.31
2023-05-05T20:41:09.406Z,15.30
2023-05-05T20:43:36.745Z,15.25
2023-05-05T20:46:03.368Z,15.19
2023-05-05T20:48:33.353Z,15.10
2023-05-05T20:51:03.540Z,15.01
2023-05-05T20:53:30.696Z,14.94
2023-05-05T20:55:57.467Z,14.86
2023-05-05T20:58:42.948Z,14.78
2023-05-05T21:01:09.563Z,14.73
2023-05-05T21:03:36.518Z,14.68
2023-05-05T21:06:03.170Z,14.64
2023-05-05T21:08:30.112Z,14.59
2023-05-05T21:10:56.805Z,14.53
2023-05-05T21:13:23.532Z,14.48
2023-05-05T21:15:50.485Z,14.43
2023-05-05T21:18:17.073Z,14.41
2023-05-05T21:20:43.684Z,14.36
2023-05-05T21:23:10.866Z,14.30
2023-05-05T21:25:37.604Z,14.27
2023-05-05T21:28:04.368Z,14.23
2023-05-05T21:30:31.201Z,14.18
2023-05-05T21:32:57.906Z,14.13
2023-05-05T21:35:24.622Z,14.11
2023-05-05T21:37:52.440Z,14.08
2023-05-05T21:40:19.108Z,14.06
2023-05-05T21:42:45.748Z,14.06
2023-05-05T21:45:14.977Z,14.02
2023-05-05T21:47:43.027Z,13.97
2023-05-05T21:50:10.967Z,13.90
2023-05-05T21:52:37.897Z,13.83
2023-05-05T21:55:04.968Z,13.79
2023-05-05T21:57:31.542Z,13.78
2023-05-05T21:59:58.151Z,13.75
2023-05-05T22:02:24.942Z,13.69
2023-05-05T22:05:10.556Z,13.66
2023-05-05T22:07:37.486Z,13.62
2023-05-05T22:10:04.429Z,13.59
2023-05-05T22:12:31.064Z,13.54
2023-05-05T22:15:03.293Z,13.50
2023-05-05T22:17:29.888Z,13.44
2023-05-05T22:19:56.883Z,13.38
2023-05-05T22:22:23.471Z,13.30
2023-05-05T22:24:50.046Z,13.22
2023-05-05T22:27:16.730Z,13.19
2023-05-05T22:29:43.331Z,13.17
2023-05-05T22:32:09.923Z,13.17
2023-05-05T22:34:37.929Z,13.16
2023-05-05T22:37:05.579Z,13.15
2023-05-05T22:39:33.325Z,13.11
2023-05-05T22:42:00.130Z,13.08
2023-05-05T22:44:26.755Z,13.04
2023-05-05T22:46:53.479Z,13.00
2023-05-05T22:49:20.323Z,12.94
2023-05-05T22:51:48.108Z,12.92
2023-05-05T22:54:14.788Z,12.92
2023-05-05T22:56:41.371Z,12.90
2023-05-05T22:59:08.161Z,12.84
2023-05-05T23:01:35.494Z,12.83
2023-05-05T23:04:02.465Z,12.77
2023-05-05T23:06:29.554Z,12.73
2023-05-05T23:08:56.151Z,12.74
2023-05-05T23:11:22.818Z,12.69
2023-05-05T23:13:49.371Z,12.62
2023-05-05T23:16:16.673Z,12.58
2023-05-05T23:18:43.332Z,12.57
2023-05-05T23:21:10.471Z,12.55
2023-05-05T23:23:37.013Z,12.51
2023-05-05T23:26:03.875Z,12.45
2023-05-05T23:28:30.985Z,12.41
2023-05-05T23:30:57.640Z,12.38
2023-05-05T23:33:24.427Z,12.37
2023-05-05T23:35:51.392Z,12.35
2023-05-05T23:38:17.998Z,12.32
2023-05-05T23:40:44.657Z,12.29
2023-05-05T23:43:12.086Z,12.27
2023-05-05T23:45:38.820Z,12.19
2023-05-05T23:48:05.820Z,12.15
2023-05-05T23:50:32.612Z,12.10
2023-05-05T23:52:59.296Z,12.05
2023-05-05T23:55:25.880Z,12.00
2023-05-05T23:57:53.145Z,11.99
